Lebanon, IN (46052)

9:42 PM EDT on April 29, 2017 (GMT -0400)
Lebanon Community School Corporation | | Change Station

Elev 958 ft 40.06 °N, 86.46 °W | Updated 1 second ago

Overcast
Overcast
52.8 °F
Feels Like 52.8 °F
N
7.0
Wind Variable Wind from WNW
Gusts 19.0 mph

Today
High -- | Low -- °F
--% Chance of Precip.
Yesterday
High -- | Low -- °F
Precip. -- in
Pressure 29.95 in
Visibility 1.2 miles
Clouds Overcast 100 ft
Dew Point 52 °F
Humidity 98%
Rainfall 0.97 in
Snow Depth Not available.
6:48 AM 8:38 PM
Waxing Crescent, 18% visible
METAR KTYQ 300135Z AUTO 08014G21KT 1 1/4SM VCTS BR OVC001 11/11 A2995 RMK AO2 LTG DSNT W T01110110
Pressure 29.95 in
Visibility 1.2 miles
Clouds Overcast 100 ft
Dew Point 52 °F
Humidity 98%
Rainfall 0.97 in
Snow Depth Not available.
6:48 AM 8:38 PM
Waxing Crescent, 18% visible
METAR KTYQ 300135Z AUTO 08014G21KT 1 1/4SM VCTS BR OVC001 11/11 A2995 RMK AO2 LTG DSNT W T01110110

Get Severe Weather Alerts

Thanks for signing up!

Be on the lookout for a verification email in your inbox.

You'll start receiving the daily forecast at 8 AM.

×

10-Day Weather Forecast

Almanac

Astronomy

Apr. 29, 2017 Rise Set
Actual Time
Civil Twilight
Nautical Twilight
Astronomical Twilight
Moon
Length of Visible Light
Length of Day
Tomorrow will be .
, % of the Moon is Illuminated

Today's Extremes

State Highs State Lows

Community

WunderPhotos

WunderBlog® & News

Nearby

Air Quality

  Air Quality AQ Index Pollutant
Not available.

Snow Depth

Station Depth Elevation

Earthquake Activity

City Distance Mag. Time & Date
Minimum magnitude displayed is 2.5.

Coastal Water Temperatures

Place Temperature

Stations

Nearby Weather Stations

Station Location Temp. Windchill Dew Point Humidity Wind Precip. Elev Updated Type
                   

Watches & Warnings

There are currently no watches in effect.